Time,TemperatureC,DewpointC,PressurehPa,WindDirection,WindDirectionDegrees,WindSpeedKMH,WindSpeedGustKMH,Humidity,HourlyPrecipMM,Conditions,Clouds,dailyrainMM,SolarRadiationWatts/m^2,UVIndex,SoftwareType,DateUTC
2026-05-05 00:04:57,9,7.8,1030.9,WNW,294,0,0,92,0.0,,,0.0,0,0,n/a,2026-05-04T12:04:57Z
2026-05-05 00:09:58,9,7.8,1030.9,WNW,294,0,0,92,0.0,,,0.0,0,0,n/a,2026-05-04T12:09:58Z
2026-05-05 00:14:58,9,7.8,1030.9,WNW,294,0,0,92,0.0,,,0.0,0,0,n/a,2026-05-04T12:14:58Z
2026-05-05 00:19:58,9,7.7,1030.8,WNW,294,2.5,5.6,92,0.0,,,0.0,0,0,n/a,2026-05-04T12:19:58Z
2026-05-05 00:24:54,8.9,7.7,1030.8,WNW,294,2.8,5.6,92,0.0,,,0.0,0,0,n/a,2026-05-04T12:24:54Z
2026-05-05 00:29:55,8.9,7.7,1030.8,WNW,294,1.5,3.7,92,0.0,,,0.0,0,0,n/a,2026-05-04T12:29:55Z
2026-05-05 00:34:59,8.9,7.7,1030.8,WNW,294,0.1,1.9,92,0.0,,,0.0,0,0,n/a,2026-05-04T12:34:59Z
2026-05-05 00:39:53,8.9,7.7,1030.8,WNW,294,1.7,5.6,92,0.0,,,0.0,0,0,n/a,2026-05-04T12:39:53Z
2026-05-05 00:44:56,8.9,7.7,1030.8,WNW,294,2.5,5.6,92,0.0,,,0.0,0,0,n/a,2026-05-04T12:44:56Z
2026-05-05 00:49:59,8.9,7.6,1030.7,WNW,294,1.4,3.7,92,0.0,,,0.0,0,0,n/a,2026-05-04T12:49:59Z
2026-05-05 00:54:56,8.8,7.6,1030.8,WNW,294,1.9,3.7,92,0.0,,,0.0,0,0,n/a,2026-05-04T12:54:56Z
2026-05-05 00:59:58,8.8,7.6,1030.7,WNW,294,1.9,3.7,92,0.0,,,0.0,0,0,n/a,2026-05-04T12:59:58Z
2026-05-05 01:04:55,8.8,7.6,1030.7,WNW,294,1.2,3.7,92,0.0,,,0.0,0,0,n/a,2026-05-04T13:04:55Z
2026-05-05 01:09:59,8.8,7.6,1030.8,WNW,294,0.6,3.7,92,0.0,,,0.0,0,0,n/a,2026-05-04T13:09:59Z
2026-05-05 01:14:58,8.8,7.6,1030.7,WNW,294,0.5,3.7,92,0.0,,,0.0,0,0,n/a,2026-05-04T13:14:58Z
2026-05-05 01:19:56,8.8,7.6,1030.7,WNW,294,1,3.7,92,0.0,,,0.0,0,0,n/a,2026-05-04T13:19:56Z
2026-05-05 01:24:58,8.7,7.5,1030.8,WNW,294,1.3,3.7,92,0.0,,,0.0,0,0,n/a,2026-05-04T13:24:58Z
2026-05-05 01:29:55,8.7,7.5,1030.7,WNW,294,0.8,3.7,92,0.0,,,0.0,0,0,n/a,2026-05-04T13:29:55Z
2026-05-05 01:34:59,8.7,7.5,1030.7,WNW,294,0.2,3.2,92,0.0,,,0.0,0,0,n/a,2026-05-04T13:34:59Z
2026-05-05 01:39:58,8.7,7.5,1030.7,WNW,294,3.8,6.4,92,0.0,,,0.0,0,0,n/a,2026-05-04T13:39:58Z
2026-05-05 01:44:55,8.7,7.5,1030.6,WNW,294,3.2,5.6,92,0.0,,,0.0,0,0,n/a,2026-05-04T13:44:55Z
2026-05-05 01:49:58,8.7,7.4,1030.6,WNW,294,2.6,5.6,92,0.0,,,0.0,0,0,n/a,2026-05-04T13:49:58Z
2026-05-05 01:54:56,8.7,7.4,1030.5,WNW,294,2.7,5.6,92,0.0,,,0.0,0,0,n/a,2026-05-04T13:54:56Z
2026-05-05 01:59:54,8.6,7.4,1030.5,WNW,294,1.6,3.7,92,0.0,,,0.0,0,0,n/a,2026-05-04T13:59:54Z
2026-05-05 02:04:54,8.6,7.4,1030.5,WNW,294,1.6,3.7,92,0.0,,,0.0,0,0,n/a,2026-05-04T14:04:54Z
2026-05-05 02:09:58,8.6,7.4,1030.5,WNW,294,0.7,3.2,92.2,0.0,,,0.0,0,0,n/a,2026-05-04T14:09:58Z
2026-05-05 02:14:55,8.6,7.5,1030.5,WNW,294,2.1,5.6,93,0.0,,,0.0,0,0,n/a,2026-05-04T14:14:55Z
2026-05-05 02:19:57,8.6,7.5,1030.4,WNW,294,3.5,6.4,93,0.0,,,0.0,0,0,n/a,2026-05-04T14:19:57Z
2026-05-05 02:24:55,8.6,7.5,1030.4,WNW,294,1.9,5.6,93,0.0,,,0.0,0,0,n/a,2026-05-04T14:24:55Z
2026-05-05 02:29:55,8.5,7.5,1030.3,WNW,294,1.8,5.6,93,0.0,,,0.0,0,0,n/a,2026-05-04T14:29:55Z
2026-05-05 02:34:56,8.5,7.4,1030.3,WNW,294,0.6,3.7,93,0.0,,,0.0,0,0,n/a,2026-05-04T14:34:56Z
2026-05-05 02:39:55,8.5,7.4,1030.3,WNW,294,0.3,1.9,93,0.0,,,0.0,0,0,n/a,2026-05-04T14:39:55Z
2026-05-05 02:44:58,8.5,7.4,1030.2,WNW,294,1.2,4.8,93,0.0,,,0.0,0,0,n/a,2026-05-04T14:44:58Z
2026-05-05 02:49:59,8.5,7.4,1030.2,WNW,294,2.2,5.6,93,0.0,,,0.0,0,0,n/a,2026-05-04T14:49:59Z
2026-05-05 02:54:54,8.4,7.4,1030.2,WNW,294,1.7,3.7,93,0.0,,,0.0,0,0,n/a,2026-05-04T14:54:54Z
2026-05-05 02:59:56,8.4,7.4,1030.1,WNW,294,1.9,3.7,93,0.0,,,0.0,0,0,n/a,2026-05-04T14:59:56Z
2026-05-05 03:04:54,8.4,7.3,1030.1,WNW,294,1.1,3.7,93,0.0,,,0.0,0,0,n/a,2026-05-04T15:04:54Z
2026-05-05 03:09:55,8.4,7.3,1030.0,WNW,294,0.5,1.9,93,0.0,,,0.0,0,0,n/a,2026-05-04T15:09:55Z
2026-05-05 03:14:56,8.3,7.3,1030.0,WNW,294,0.7,1.9,93,0.0,,,0.0,0,0,n/a,2026-05-04T15:14:56Z
2026-05-05 03:19:58,8.3,7.3,1029.9,WNW,294,0.4,1.9,93,0.0,,,0.0,0,0,n/a,2026-05-04T15:19:58Z
2026-05-05 03:24:56,8.3,7.3,1029.9,WNW,294,1,3.7,93,0.0,,,0.0,0,0,n/a,2026-05-04T15:24:56Z
2026-05-05 03:29:59,8.3,7.3,1029.9,WNW,294,1.8,3.7,93,0.0,,,0.0,0,0,n/a,2026-05-04T15:29:59Z
2026-05-05 03:34:58,8.3,7.2,1029.9,WNW,294,1.4,5.6,93,0.0,,,0.0,0,0,n/a,2026-05-04T15:34:58Z
2026-05-05 03:39:56,8.3,7.2,1029.8,WNW,294,2,4.8,93,0.0,,,0.0,0,0,n/a,2026-05-04T15:39:56Z
2026-05-05 03:44:54,8.3,7.2,1029.9,WNW,294,2.3,5.6,93,0.0,,,0.0,0,0,n/a,2026-05-04T15:44:54Z
2026-05-05 03:49:58,8.3,7.2,1029.9,WNW,294,3.1,6.4,93,0.0,,,0.0,0,0,n/a,2026-05-04T15:49:58Z
2026-05-05 03:54:55,8.3,7.2,1029.8,WNW,294,3.3,5.6,93,0.0,,,0.0,0,0,n/a,2026-05-04T15:54:55Z
2026-05-05 03:59:53,8.3,7.2,1029.8,WNW,294,3.4,6.4,93,0.0,,,0.0,0,0,n/a,2026-05-04T15:59:53Z
2026-05-05 04:04:59,8.2,7.2,1029.8,WNW,294,3.4,6.4,93,0.0,,,0.0,0,0,n/a,2026-05-04T16:04:59Z
2026-05-05 04:09:58,8.2,7.1,1029.8,WNW,294,2,5.6,93,0.0,,,0.0,0,0,n/a,2026-05-04T16:09:58Z
2026-05-05 04:14:56,8.2,7.1,1029.7,WNW,294,0.6,3.7,93,0.0,,,0.0,0,0,n/a,2026-05-04T16:14:56Z
2026-05-05 04:19:58,8.2,7.1,1029.7,WNW,294,0.6,3.7,93,0.0,,,0.0,0,0,n/a,2026-05-04T16:19:58Z
2026-05-05 04:24:55,8.2,7.1,1029.8,WNW,294,1.9,3.7,93,0.0,,,0.0,0,0,n/a,2026-05-04T16:24:55Z
2026-05-05 04:29:59,8.2,7.1,1029.7,WNW,294,0.8,3.7,93,0.0,,,0.0,0,0,n/a,2026-05-04T16:29:59Z
2026-05-05 04:34:56,8.2,7.1,1029.7,WNW,294,0.6,3.2,93,0.0,,,0.0,0,0,n/a,2026-05-04T16:34:56Z
2026-05-05 04:39:55,8.2,7.1,1029.8,WNW,294,0.8,3.7,93,0.0,,,0.0,0,0,n/a,2026-05-04T16:39:55Z
2026-05-05 04:44:58,8.2,7.1,1029.7,WNW,294,1.5,3.7,93,0.0,,,0.0,0,0,n/a,2026-05-04T16:44:58Z
2026-05-05 04:49:54,8.2,7.1,1029.7,WNW,294,1.3,3.7,93,0.0,,,0.0,0,0,n/a,2026-05-04T16:49:54Z
2026-05-05 04:54:57,8.2,7.1,1029.7,WNW,294,2,5.6,93.1,0.0,,,0.0,0,0,n/a,2026-05-04T16:54:57Z
2026-05-05 04:59:56,8.2,7.2,1029.8,WNW,294,2.5,5.6,93.6,0.0,,,0.0,0,0,n/a,2026-05-04T16:59:56Z
2026-05-05 05:04:59,8.2,7.3,1029.7,WNW,294,1.7,5.6,93.9,0.0,,,0.0,0,0,n/a,2026-05-04T17:04:59Z
2026-05-05 05:09:57,8.2,7.3,1029.8,WNW,294,1.6,3.7,94,0.0,,,0.0,0,0,n/a,2026-05-04T17:09:57Z
2026-05-05 05:14:56,8.2,7.3,1029.8,WNW,294,0.7,1.9,94,0.0,,,0.0,0,0,n/a,2026-05-04T17:14:56Z
2026-05-05 05:19:58,8.2,7.3,1029.8,WNW,294,0.6,1.9,94,0.0,,,0.0,0,0,n/a,2026-05-04T17:19:58Z
2026-05-05 05:24:55,8.2,7.3,1029.8,WNW,294,0.6,3.7,94,0.0,,,0.0,0,0,n/a,2026-05-04T17:24:55Z
2026-05-05 05:29:59,8.2,7.3,1029.8,WNW,294,2.8,5.6,94,0.0,,,0.0,0,0,n/a,2026-05-04T17:29:59Z
2026-05-05 05:34:57,8.1,7.2,1029.8,WNW,294,1.5,5.6,94,0.0,,,0.0,0,0,n/a,2026-05-04T17:34:57Z
2026-05-05 05:39:56,8.1,7.2,1029.8,WNW,294,1.5,4.8,94,0.0,,,0.0,0,0,n/a,2026-05-04T17:39:56Z
2026-05-05 05:44:54,8.1,7.2,1029.8,WNW,294,2.3,5.6,94,0.0,,,0.0,0,0,n/a,2026-05-04T17:44:54Z
2026-05-05 05:49:58,8.1,7.2,1029.8,WNW,294,2.5,5.6,94,0.0,,,0.0,0,0,n/a,2026-05-04T17:49:58Z
2026-05-05 05:54:55,8.1,7.2,1029.8,WNW,294,1.5,3.7,94,0.0,,,0.0,0,0,n/a,2026-05-04T17:54:55Z
2026-05-05 05:59:59,8.1,7.2,1029.8,WNW,294,2.4,3.7,94,0.0,,,0.0,0,0,n/a,2026-05-04T17:59:59Z